Morton, Texas
Current Conditions -  °F | °C
As of 2:35 AM on Tuesday 27 Jan 2015 (Local Time) from KCVN Reporting Station
Clear Clear  
Wind Chill: 32°   Ceiling: Unl
Heat Index: 39°   Visibility: NA
Dew Point: 28°   Wind: 10mph
Humidity: 65%   Direction: 310°NW
Pressure: 30.26"   Gusts: NA
Location:  33.73°N, 102.76°W
Report Text: KCVN 270835Z AUTO 31009KT CLR 04/M02 A3026 RMK AO1
Loading
Personal Weather Stations






























Interactive Weather Map New forecast layout! Learn more

10-Day Weather Forecast

Advertisements
Track Severe Weather on mobile